Flight Track Log - Related Links

Times and Time Zones

All times are in EDT time to prevent confusion due to time zone crossing. See the N129CG flight status page for this flight to view local times or setup timezone preferences in your user account.

Time Position Orientation Groundspeed Altitude Reporting Facility
EDT Latitude Longitude Course Direction KTS MPH feet Rate Location/Type
Sun 04:19:06 PM 25.7169 -79.3153 232° Southwest 153 176 2,200  Level Miami Center
Sun 04:20:06 PM 25.7186 -79.3475 273° West 132 152 3,000 800 Climbing Miami Center
Sun 04:21:06 PM 25.7181 -79.3844 269° West 121 139 3,800 500 Climbing Miami Center
Sun 04:22:06 PM 25.7131 -79.4281 263° West 127 146 4,000 150 Climbing Miami Center
Sun 04:23:06 PM 25.7122 -79.4764 269° West 144 166 4,100 50 Climbing Miami Center
Sun 04:24:00 PM 25.5361 -79.4842 232° Southwest  Level FlightAware Approximate
Sun 04:24:06 PM 25.7072 -79.5247 263° West 156 180 4,100  Level Miami Center
Sun 04:24:45 PM 25.7022 -79.5639 262° West 154 177 4,100  Level Miami Center
Sun 04:25:46 PM 25.6992 -79.6100 266° West 154 177 4,100  Level Miami Center
Sun 04:26:47 PM 25.6942 -79.6583 263° West 156 180 4,100  Level Miami Center
Sun 04:27:48 PM 25.6911 -79.7067 266° West 156 180 4,100  Level Miami Center
Sun 04:28:50 PM 25.6881 -79.7550 266° West 154 177 4,100 -98 Level Miami Center
Sun 04:29:51 PM 25.6850 -79.8033 266° West 155 178 3,900 -309 Descending Miami Center
Sun 04:31:06 PM 25.6839 -79.8586 269° West 161 185 3,400 -393 Descending Miami Center
Sun 04:31:53 PM 25.6789 -79.9069 263° West 167 192 3,100 -200 Descending Miami Center
Sun 04:33:06 PM 25.6778 -79.9575 269° West 161 185 3,000 -47 Descending Miami Center
Sun 04:34:01 PM 25.6703 -80.0081 261° West 153 176 3,000 52 Level Miami Center
Sun 04:35:02 PM 25.6694 -80.0564 269° West 147 169 3,100 49 Climbing Miami Center
Sun 04:36:03 PM 25.6600 -80.1022 257° West 151 174 3,100 -246 Level Miami Center
Sun 04:37:04 PM 25.6547 -80.1506 263° West 167 192 2,600 -443 Descending Miami Center
Sun 04:38:05 PM 25.6453 -80.1986 258° West 168 193 2,200 -295 Descending Miami Center
Sun 04:39:06 PM 25.6400 -80.2517 264° West 160 184 2,000 -103 Descending Miami Center
Sun 04:40:01 PM 25.6306 -80.2950 256° West 153 176 2,000 -52 Level Miami Center
Sun 04:41:02 PM 25.6233 -80.3408 260° West 150 173 1,900 -98 Descending Miami Center
Sun 04:42:03 PM 25.6200 -80.3847 265° West 127 146 1,800 -148 Descending Miami Center
Sun 04:43:04 PM 25.6192 -80.4192 268° West 99 114 1,600 -148 Descending Miami Center
Sun 04:44:05 PM 25.6186 -80.4492 269° West 104 120 1,500 -492 Descending Miami Center
Sun 04:45:06 PM 25.6372 -80.4567 340° North 95 109 600 -885 Descending Miami Center
Sun 04:47:00 PM 25.6476 -80.4332 42° Northeast  Level Estimated
Sun 04:54:00 PM 25.6476 -80.4332 42° Northeast  Level Estimated
Sun 04:55:00 PM 25.6476 -80.4332 42° Northeast  Level Estimated
Sun 04:56:00 PM 25.6476 -80.4332 42° Northeast  Level Estimated
Sun 04:57:00 PM 25.6476 -80.4332 42° Northeast  Level Estimated
Sun 04:58:00 PM 25.6476 -80.4332 42° Northeast  Level Estimated

Login

Don't have an account? Register now (free) for customized features, flight alerts, and more!